Time;durP1;ratioP1;P1;durP2;ratioP2;P2;SDS_P1;SDS_P2;PMS_P1;PMS_P2;Temp;Humidity;BMP_temperature;BMP_pressure;BME280_temperature;BME280_humidity;BME280_pressure;Samples;Min_cycle;Max_cycle;Signal;HPM_P1;HPM_P2
2021/08/18 00:00:00;;;;;;;9.93;6.70;;;10.00;99.90;;;;;;5076644;28;20083;-92
2021/08/18 00:02:27;;;;;;;10.98;6.30;;;10.00;99.90;;;;;;5076308;28;20098;-91
2021/08/18 00:04:54;;;;;;;13.13;6.47;;;9.90;99.90;;;;;;5076531;28;20059;-91
2021/08/18 00:07:21;;;;;;;10.85;5.78;;;9.80;99.90;;;;;;5076484;28;20059;-91
2021/08/18 00:09:51;;;;;;;12.13;6.20;;;9.80;99.90;;;;;;5076434;28;20555;-92
2021/08/18 00:12:18;;;;;;;11.02;6.75;;;9.80;99.90;;;;;;5076065;28;20052;-91
2021/08/18 00:14:45;;;;;;;12.25;7.00;;;9.80;99.90;;;;;;5076376;28;20056;-92
2021/08/18 00:17:12;;;;;;;10.88;6.55;;;9.70;99.90;;;;;;5076419;28;20139;-92
2021/08/18 00:19:38;;;;;;;9.25;6.55;;;9.70;99.90;;;;;;5076208;28;20051;-91
2021/08/18 00:22:05;;;;;;;12.15;6.43;;;9.50;99.90;;;;;;5076932;28;20052;-92
2021/08/18 00:24:32;;;;;;;10.20;6.45;;;9.60;99.90;;;;;;5077605;28;20050;-91
2021/08/18 00:26:59;;;;;;;11.95;7.22;;;9.40;99.90;;;;;;5080277;28;20052;-91
2021/08/18 00:29:38;;;;;;;11.90;7.18;;;9.30;99.90;;;;;;5077873;28;20044;-92
2021/08/18 00:32:06;;;;;;;10.73;6.38;;;9.30;99.90;;;;;;5075999;28;20067;-92
2021/08/18 00:34:32;;;;;;;16.25;7.13;;;9.30;99.90;;;;;;5076168;28;20074;-92
2021/08/18 00:36:59;;;;;;;14.50;7.22;;;9.30;99.90;;;;;;5075674;28;20097;-92
2021/08/18 00:39:26;;;;;;;15.50;8.00;;;9.50;99.90;;;;;;5076512;28;20052;-92
2021/08/18 00:41:55;;;;;;;12.63;7.03;;;9.60;99.90;;;;;;5080098;28;20044;-92
2021/08/18 00:44:21;;;;;;;14.15;7.75;;;9.60;99.90;;;;;;5079926;28;20056;-92
2021/08/18 00:46:56;;;;;;;13.02;7.22;;;9.70;99.90;;;;;;5080085;28;20054;-91
2021/08/18 00:49:23;;;;;;;12.52;7.38;;;9.80;99.90;;;;;;5079938;28;20055;-91
2021/08/18 00:51:54;;;;;;;13.65;7.40;;;9.90;99.90;;;;;;5079737;28;20135;-92
2021/08/18 00:54:22;;;;;;;9.77;6.10;;;9.90;99.90;;;;;;5080239;28;20076;-91
2021/08/18 00:56:49;;;;;;;14.13;7.50;;;9.90;99.90;;;;;;5082200;28;20143;-91
2021/08/18 00:59:16;;;;;;;13.40;7.78;;;10.10;99.90;;;;;;5080503;28;20058;-92
2021/08/18 01:01:44;;;;;;;15.35;7.57;;;10.20;99.90;;;;;;5079804;28;20415;-92
2021/08/18 01:04:12;;;;;;;12.15;6.90;;;10.20;99.90;;;;;;5079633;28;20121;-91
2021/08/18 01:06:42;;;;;;;12.50;7.05;;;10.20;99.90;;;;;;5079335;28;20060;-91
2021/08/18 01:09:10;;;;;;;12.48;6.80;;;10.40;99.90;;;;;;5079548;28;20070;-92
2021/08/18 01:11:39;;;;;;;11.05;6.93;;;10.50;99.90;;;;;;5079492;28;20589;-90
2021/08/18 01:14:06;;;;;;;9.07;5.93;;;10.60;99.90;;;;;;5079603;28;20048;-91
2021/08/18 01:16:51;;;;;;;12.32;6.45;;;10.70;99.90;;;;;;5079383;28;20040;-91
2021/08/18 01:19:19;;;;;;;11.80;5.80;;;10.70;99.90;;;;;;5079474;28;20134;-93
2021/08/18 01:21:48;;;;;;;8.82;5.72;;;10.70;99.90;;;;;;5079770;28;20090;-91
2021/08/18 01:24:18;;;;;;;11.05;6.88;;;10.80;99.90;;;;;;5079556;28;20143;-91
2021/08/18 01:26:45;;;;;;;11.23;6.72;;;10.80;99.90;;;;;;5079463;28;20056;-91
2021/08/18 01:29:12;;;;;;;9.35;6.20;;;10.80;99.90;;;;;;5079374;28;20055;-92
2021/08/18 01:31:41;;;;;;;9.75;6.30;;;10.90;99.90;;;;;;5079092;28;20048;-91
2021/08/18 01:34:08;;;;;;;7.45;5.63;;;10.90;99.90;;;;;;5079424;28;20051;-91
2021/08/18 01:36:35;;;;;;;10.88;6.13;;;11.00;99.90;;;;;;5079373;28;20062;-92
2021/08/18 01:39:06;;;;;;;10.35;6.15;;;11.00;99.90;;;;;;5078802;28;20051;-92
2021/08/18 01:41:34;;;;;;;10.23;6.03;;;11.10;99.90;;;;;;5079453;28;20408;-92
2021/08/18 01:44:01;;;;;;;9.80;5.82;;;11.00;99.90;;;;;;5079163;28;20055;-92
2021/08/18 01:46:28;;;;;;;9.85;6.40;;;11.00;99.90;;;;;;5078852;28;20056;-91
2021/08/18 01:48:57;;;;;;;9.32;6.53;;;11.00;99.90;;;;;;5079264;28;20048;-92
2021/08/18 01:51:24;;;;;;;10.52;6.35;;;11.00;99.90;;;;;;5078682;28;20058;-91
2021/08/18 01:53:51;;;;;;;12.13;6.50;;;10.90;99.90;;;;;;5078528;28;20052;-92
2021/08/18 01:56:18;;;;;;;11.75;7.00;;;11.00;99.90;;;;;;5078675;28;20047;-92
2021/08/18 01:58:46;;;;;;;10.52;6.07;;;11.00;99.90;;;;;;5078958;28;20052;-92
2021/08/18 02:01:15;;;;;;;11.60;6.20;;;11.00;99.90;;;;;;5079327;28;20403;-91
2021/08/18 02:03:43;;;;;;;12.02;6.13;;;11.10;99.90;;;;;;5078577;28;20048;-91
2021/08/18 02:06:10;;;;;;;8.43;5.88;;;11.10;99.90;;;;;;5078472;28;20599;-91
2021/08/18 02:08:37;;;;;;;9.88;5.97;;;11.20;99.90;;;;;;5078161;28;20412;-92
2021/08/18 02:11:04;;;;;;;8.65;5.65;;;11.20;99.90;;;;;;5078347;28;20135;-92
2021/08/18 02:13:32;;;;;;;10.65;6.63;;;11.20;99.90;;;;;;5078514;28;20062;-91
2021/08/18 02:15:59;;;;;;;10.68;6.15;;;11.10;99.90;;;;;;5080136;28;20068;-90
2021/08/18 02:18:26;;;;;;;13.40;6.03;;;11.00;99.90;;;;;;5078662;28;20055;-91
2021/08/18 02:20:52;;;;;;;8.95;6.30;;;10.80;99.90;;;;;;5077933;28;20070;-91
2021/08/18 02:23:19;;;;;;;13.05;6.70;;;10.70;99.90;;;;;;5078040;28;20079;-91
2021/08/18 02:25:46;;;;;;;9.63;6.43;;;10.60;99.90;;;;;;5078125;28;20131;-92
2021/08/18 02:28:13;;;;;;;11.15;6.28;;;10.70;99.90;;;;;;5077960;28;20138;-92
2021/08/18 02:30:40;;;;;;;11.32;6.57;;;10.80;99.90;;;;;;5078221;28;20044;-91
2021/08/18 02:33:08;;;;;;;10.90;6.10;;;10.80;99.90;;;;;;5077998;28;20544;-91
2021/08/18 02:35:36;;;;;;;13.23;6.30;;;10.80;99.90;;;;;;5077880;28;20499;-92
2021/08/18 02:38:04;;;;;;;9.50;6.22;;;10.80;99.90;;;;;;5077466;28;20131;-91
2021/08/18 02:40:31;;;;;;;11.82;6.70;;;10.70;99.90;;;;;;5077813;28;20086;-91
2021/08/18 02:43:00;;;;;;;12.07;6.57;;;10.80;99.90;;;;;;5077698;28;20048;-91
2021/08/18 02:45:28;;;;;;;12.88;6.45;;;10.90;99.90;;;;;;5077574;28;20127;-92
2021/08/18 02:47:56;;;;;;;11.18;6.43;;;10.90;99.90;;;;;;5077701;28;20075;-92
2021/08/18 02:50:25;;;;;;;14.25;6.60;;;10.80;99.90;;;;;;5078183;28;20131;-92
2021/08/18 02:52:52;;;;;;;11.65;6.32;;;10.80;99.90;;;;;;5088461;28;20118;-92
2021/08/18 02:55:20;;;;;;;11.05;6.70;;;10.80;99.90;;;;;;5079352;28;20052;-92
2021/08/18 02:57:46;;;;;;;11.35;6.68;;;10.80;99.90;;;;;;5077418;28;20044;-91
2021/08/18 03:00:13;;;;;;;14.32;7.57;;;10.80;99.90;;;;;;5077106;28;20449;-90
2021/08/18 03:02:40;;;;;;;12.52;7.25;;;10.80;99.90;;;;;;5076253;28;20059;-91
2021/08/18 03:05:08;;;;;;;10.05;6.60;;;10.80;99.90;;;;;;5077275;28;20078;-92
2021/08/18 03:07:35;;;;;;;10.00;6.38;;;10.90;99.90;;;;;;5077128;28;20060;-92
2021/08/18 03:10:03;;;;;;;11.60;6.90;;;10.90;99.90;;;;;;5077256;28;20052;-91
2021/08/18 03:12:30;;;;;;;9.43;6.22;;;11.00;99.90;;;;;;5077063;28;20488;-92
2021/08/18 03:14:57;;;;;;;10.13;6.45;;;11.10;99.90;;;;;;5076972;28;20143;-91
2021/08/18 03:17:23;;;;;;;8.60;6.05;;;11.20;99.90;;;;;;5076746;28;20055;-92
2021/08/18 03:19:50;;;;;;;11.23;7.13;;;11.30;99.90;;;;;;5077373;28;20135;-91
2021/08/18 03:22:17;;;;;;;18.17;7.00;;;11.30;99.90;;;;;;5076781;28;20136;-91
2021/08/18 03:24:45;;;;;;;10.23;6.13;;;11.40;99.90;;;;;;5076733;28;20051;-92
2021/08/18 03:27:12;;;;;;;12.38;6.32;;;11.40;99.90;;;;;;5077073;28;20419;-91
2021/08/18 03:29:39;;;;;;;11.10;5.82;;;11.50;99.90;;;;;;5077145;28;20050;-92
2021/08/18 03:32:06;;;;;;;8.93;5.80;;;11.50;99.90;;;;;;5076768;28;20131;-92
2021/08/18 03:34:33;;;;;;;9.35;5.45;;;11.50;99.90;;;;;;5077041;28;20056;-91
2021/08/18 03:36:59;;;;;;;7.45;5.57;;;11.60;99.90;;;;;;5076955;28;20139;-91
2021/08/18 03:39:26;;;;;;;6.80;5.45;;;11.60;99.90;;;;;;5076516;28;20139;-92
2021/08/18 03:41:53;;;;;;;7.15;5.43;;;11.60;99.90;;;;;;5077098;28;20056;-92
2021/08/18 03:44:19;;;;;;;7.60;5.10;;;11.60;99.90;;;;;;5076213;28;20148;-91
2021/08/18 03:46:46;;;;;;;5.20;4.30;;;11.60;99.90;;;;;;5076450;28;20063;-91
2021/08/18 03:49:13;;;;;;;4.85;2.92;;;11.60;99.90;;;;;;5076827;28;20458;-93
2021/08/18 03:51:40;;;;;;;3.50;2.85;;;11.70;99.90;;;;;;5076502;28;20498;-93
2021/08/18 03:54:06;;;;;;;2.28;2.08;;;11.80;99.90;;;;;;5076336;28;20130;-92
2021/08/18 03:56:33;;;;;;;3.65;2.28;;;12.00;99.90;;;;;;5076120;28;20131;-91
2021/08/18 03:59:00;;;;;;;2.10;1.98;;;12.20;99.90;;;;;;5076065;28;20123;-91
2021/08/18 04:01:27;;;;;;;1.95;1.73;;;12.30;99.90;;;;;;5076271;28;20040;-91
2021/08/18 04:03:53;;;;;;;1.73;1.63;;;12.40;99.90;;;;;;5076280;28;20059;-91
2021/08/18 04:06:20;;;;;;;1.77;1.63;;;12.40;99.90;;;;;;5076259;28;20048;-91
2021/08/18 04:08:47;;;;;;;1.92;1.35;;;12.50;99.90;;;;;;5076836;28;20048;-91
2021/08/18 04:11:14;;;;;;;1.65;1.55;;;12.60;99.90;;;;;;5076721;28;20058;-91
2021/08/18 04:13:41;;;;;;;1.40;1.30;;;12.70;99.90;;;;;;5076039;28;20048;-92
2021/08/18 04:16:08;;;;;;;1.08;1.08;;;12.90;99.90;;;;;;5076176;28;20054;-92
2021/08/18 04:18:34;;;;;;;0.98;0.98;;;13.20;99.90;;;;;;5076627;28;20056;-91
2021/08/18 04:21:01;;;;;;;1.02;1.02;;;13.30;99.90;;;;;;5076263;28;20066;-92
2021/08/18 04:23:28;;;;;;;2.20;1.40;;;13.50;99.90;;;;;;5076228;28;20058;-92
2021/08/18 04:25:55;;;;;;;1.42;1.33;;;13.60;99.90;;;;;;5076283;28;20048;-91
2021/08/18 04:28:21;;;;;;;2.85;1.50;;;13.60;99.90;;;;;;5075728;28;20384;-92
2021/08/18 04:30:48;;;;;;;2.63;1.60;;;13.70;99.90;;;;;;5075929;28;20044;-92
2021/08/18 04:33:15;;;;;;;5.40;1.98;;;13.80;99.90;;;;;;5076054;28;20550;-91
2021/08/18 04:35:42;;;;;;;3.85;1.95;;;13.90;99.90;;;;;;5076219;28;20450;-90
2021/08/18 04:38:09;;;;;;;2.10;1.90;;;13.80;99.90;;;;;;5076338;28;20052;-90
2021/08/18 04:40:36;;;;;;;2.00;1.90;;;13.70;99.90;;;;;;5076344;28;20048;-90
2021/08/18 04:43:03;;;;;;;2.15;1.90;;;13.70;99.90;;;;;;5076543;28;20066;-91
2021/08/18 04:45:30;;;;;;;2.13;1.65;;;13.70;99.90;;;;;;5076123;28;20054;-91
2021/08/18 04:47:56;;;;;;;1.90;1.80;;;13.70;99.90;;;;;;5075982;28;20056;-92
2021/08/18 04:50:25;;;;;;;1.92;1.83;;;13.80;99.90;;;;;;5076127;28;20055;-91
2021/08/18 04:52:52;;;;;;;1.80;1.70;;;13.90;99.90;;;;;;5076670;28;20130;-91
2021/08/18 04:55:20;;;;;;;1.88;1.77;;;13.90;99.90;;;;;;5076443;28;20058;-91
2021/08/18 04:57:47;;;;;;;8.65;1.90;;;14.00;99.90;;;;;;5076014;28;20476;-91
2021/08/18 05:00:14;;;;;;;8.57;1.85;;;14.00;99.90;;;;;;5076235;28;20048;-91
2021/08/18 05:02:41;;;;;;;1.80;1.27;;;14.00;99.90;;;;;;5076314;28;20071;-92
2021/08/18 05:05:09;;;;;;;1.48;1.20;;;14.10;99.90;;;;;;5076160;28;20488;-90
2021/08/18 05:07:35;;;;;;;1.20;0.90;;;14.20;99.90;;;;;;5075783;28;20044;-90
2021/08/18 05:10:03;;;;;;;1.38;0.80;;;14.30;99.90;;;;;;5076136;28;20435;-91
2021/08/18 05:12:31;;;;;;;2.42;1.10;;;14.40;99.90;;;;;;5076166;28;20139;-91
2021/08/18 05:14:57;;;;;;;0.70;0.70;;;14.50;99.90;;;;;;5075903;28;20052;-91
2021/08/18 05:17:24;;;;;;;0.70;0.70;;;14.50;99.90;;;;;;5083877;28;20064;-91
2021/08/18 05:19:51;;;;;;;0.73;0.73;;;14.60;99.90;;;;;;5081660;28;20139;-91
2021/08/18 05:22:17;;;;;;;1.27;0.95;;;14.70;99.90;;;;;;5075779;28;20044;-91
2021/08/18 05:24:44;;;;;;;0.90;0.90;;;14.80;99.90;;;;;;5075734;28;20506;-91
2021/08/18 05:27:11;;;;;;;1.52;1.08;;;14.90;99.90;;;;;;5078472;28;20488;-90
2021/08/18 05:29:37;;;;;;;1.25;1.13;;;15.10;99.90;;;;;;5079064;28;20403;-89
2021/08/18 05:32:05;;;;;;;0.98;0.80;;;15.20;99.90;;;;;;5079281;28;20051;-91
2021/08/18 05:34:32;;;;;;;0.70;0.70;;;15.30;99.90;;;;;;5079278;28;20048;-90
2021/08/18 05:36:58;;;;;;;0.82;0.82;;;15.40;99.90;;;;;;5079374;28;20044;-90
2021/08/18 05:39:25;;;;;;;1.77;0.70;;;15.50;99.90;;;;;;5079103;28;20051;-91
2021/08/18 05:41:52;;;;;;;1.00;0.90;;;15.50;99.90;;;;;;5078833;28;20044;-90
2021/08/18 05:44:18;;;;;;;0.98;0.63;;;15.60;99.90;;;;;;5078550;28;20052;-91
2021/08/18 05:46:45;;;;;;;0.88;0.60;;;15.80;99.90;;;;;;5078811;28;20087;-95
2021/08/18 05:49:20;;;;;;;4.28;0.80;;;16.20;99.90;;;;;;5078843;28;20060;-90
2021/08/18 05:51:48;;;;;;;0.70;0.70;;;16.40;99.90;;;;;;5078776;28;20058;-89
2021/08/18 05:54:17;;;;;;;0.60;0.60;;;16.60;99.90;;;;;;5078930;28;20048;-93
2021/08/18 05:56:44;;;;;;;1.75;0.82;;;16.80;99.90;;;;;;5078534;28;20048;-91
2021/08/18 05:59:11;;;;;;;0.65;0.65;;;16.60;99.90;;;;;;5078867;28;20048;-89
2021/08/18 06:01:38;;;;;;;0.68;0.68;;;16.40;99.90;;;;;;5079117;28;20165;-92
2021/08/18 06:04:05;;;;;;;0.60;0.60;;;16.30;99.90;;;;;;5078379;28;20051;-87
2021/08/18 06:06:31;;;;;;;0.88;0.60;;;16.10;99.90;;;;;;5078654;28;20135;-91
2021/08/18 06:08:58;;;;;;;1.25;0.65;;;16.00;99.90;;;;;;5078507;28;20420;-89
2021/08/18 06:11:25;;;;;;;0.95;0.65;;;16.00;99.90;;;;;;5079262;28;20429;-91
2021/08/18 06:13:52;;;;;;;0.82;0.82;;;16.00;99.90;;;;;;5078964;28;20051;-92
2021/08/18 06:16:20;;;;;;;0.60;0.60;;;16.30;99.90;;;;;;5078219;28;20060;-93
2021/08/18 06:18:48;;;;;;;0.65;0.60;;;16.40;99.90;;;;;;5078700;28;20052;-91
2021/08/18 06:21:15;;;;;;;2.35;0.52;;;16.40;99.90;;;;;;5078668;28;20108;-90
2021/08/18 06:23:42;;;;;;;2.60;0.60;;;16.40;99.90;;;;;;5078322;28;20512;-92
2021/08/18 06:26:09;;;;;;;0.50;0.50;;;16.40;99.90;;;;;;5078095;28;20079;-91
2021/08/18 06:28:35;;;;;;;0.88;0.60;;;16.30;99.90;;;;;;5078149;28;20140;-91
2021/08/18 06:31:02;;;;;;;1.02;0.70;;;16.30;99.90;;;;;;5078283;28;20054;-92
2021/08/18 06:33:29;;;;;;;1.30;0.90;;;16.30;99.90;;;;;;5077915;28;20101;-92
2021/08/18 06:35:56;;;;;;;1.13;1.10;;;16.40;99.90;;;;;;5077818;28;20070;-93
2021/08/18 06:38:23;;;;;;;1.38;0.60;;;16.40;99.90;;;;;;5076511;28;20079;-91
2021/08/18 06:40:49;;;;;;;0.80;0.80;;;16.50;99.90;;;;;;5077909;28;20052;-91
2021/08/18 06:43:16;;;;;;;2.33;2.22;;;16.50;99.90;;;;;;5077840;28;20044;-89
2021/08/18 06:45:43;;;;;;;1.50;1.40;;;16.50;99.90;;;;;;5077661;28;20495;-90
2021/08/18 06:48:09;;;;;;;4.22;3.88;;;16.60;99.90;;;;;;5077672;28;20048;-91
2021/08/18 06:50:36;;;;;;;2.83;2.72;;;16.80;99.90;;;;;;5077495;28;20462;-89
2021/08/18 06:53:03;;;;;;;1.02;0.82;;;16.90;99.90;;;;;;5077629;28;20131;-92
2021/08/18 06:55:30;;;;;;;0.73;0.73;;;16.80;99.90;;;;;;5077431;28;20048;-93
2021/08/18 06:57:57;;;;;;;0.90;0.90;;;16.90;99.90;;;;;;5077750;28;20461;-92
2021/08/18 07:00:24;;;;;;;7.88;7.25;;;17.00;99.90;;;;;;5077245;28;20048;-91
2021/08/18 07:02:51;;;;;;;2.05;1.60;;;17.00;99.90;;;;;;5077350;28;20062;-90
2021/08/18 07:05:20;;;;;;;1.65;0.82;;;17.00;99.90;;;;;;5077575;28;20101;-91
2021/08/18 07:07:47;;;;;;;2.10;2.00;;;16.90;99.90;;;;;;5077569;28;20047;-93
2021/08/18 07:10:16;;;;;;;1.00;1.00;;;17.20;99.90;;;;;;5077241;28;20067;-91
2021/08/18 07:12:44;;;;;;;1.55;1.15;;;17.30;99.90;;;;;;5077393;28;20141;-93
2021/08/18 07:15:11;;;;;;;33.70;5.63;;;17.20;99.90;;;;;;5077058;28;20048;-92
2021/08/18 07:17:38;;;;;;;1.20;0.98;;;17.20;99.90;;;;;;5077673;28;20055;-90
2021/08/18 07:20:05;;;;;;;0.80;0.80;;;17.30;99.90;;;;;;5077177;28;20130;-94
2021/08/18 07:22:32;;;;;;;0.98;0.98;;;17.40;99.90;;;;;;5076645;28;20502;-94
2021/08/18 07:24:59;;;;;;;4.22;1.63;;;17.40;99.90;;;;;;5077163;28;20135;-91
2021/08/18 07:27:27;;;;;;;3.58;1.20;;;17.60;99.90;;;;;;5077197;28;20052;-90
2021/08/18 07:29:56;;;;;;;0.85;0.80;;;17.70;99.90;;;;;;5077852;28;20074;-92
2021/08/18 07:32:25;;;;;;;1.50;1.05;;;17.70;99.90;;;;;;5078551;28;20056;-90
2021/08/18 07:34:52;;;;;;;0.80;0.80;;;17.80;99.90;;;;;;5077442;28;20122;-91
2021/08/18 07:37:19;;;;;;;0.90;0.90;;;18.00;99.90;;;;;;5077212;28;20050;-91
2021/08/18 07:39:45;;;;;;;1.75;0.80;;;18.00;99.90;;;;;;5077582;28;20048;-92
2021/08/18 07:42:13;;;;;;;0.82;0.82;;;18.10;99.90;;;;;;5077269;28;20131;-92
2021/08/18 07:44:41;;;;;;;1.50;0.80;;;18.40;99.90;;;;;;5083404;28;20067;-91
2021/08/18 07:47:08;;;;;;;1.13;0.80;;;18.60;99.90;;;;;;5084162;28;20547;-91
2021/08/18 07:49:34;;;;;;;1.73;0.73;;;18.60;99.90;;;;;;5076122;28;20047;-90
2021/08/18 07:52:19;;;;;;;4.50;1.10;;;19.10;99.90;;;;;;5079162;28;20076;-90
2021/08/18 07:54:46;;;;;;;0.80;0.80;;;19.40;99.90;;;;;;5076486;28;20138;-90
2021/08/18 07:57:13;;;;;;;0.55;0.55;;;19.40;99.90;;;;;;5076309;28;20480;-89
2021/08/18 07:59:40;;;;;;;0.50;0.50;;;19.30;99.90;;;;;;5076344;28;20066;-91
2021/08/18 08:02:07;;;;;;;0.40;0.40;;;19.30;99.90;;;;;;5076481;28;20157;-90
2021/08/18 08:04:34;;;;;;;0.73;0.43;;;19.50;99.90;;;;;;5076642;28;20136;-93
2021/08/18 08:07:01;;;;;;;0.75;0.22;;;19.50;99.90;;;;;;5076265;28;20047;-91
2021/08/18 08:09:28;;;;;;;0.85;0.40;;;19.30;99.90;;;;;;5076400;28;20067;-90
2021/08/18 08:11:55;;;;;;;0.38;0.20;;;19.00;99.90;;;;;;5077479;28;20486;-90
2021/08/18 08:14:21;;;;;;;0.30;0.20;;;19.10;99.90;;;;;;5076520;28;20046;-90
2021/08/18 08:16:48;;;;;;;0.52;0.45;;;19.40;99.90;;;;;;5076534;28;20058;-89
2021/08/18 08:19:15;;;;;;;1.50;0.20;;;19.10;99.90;;;;;;5076653;28;20048;-91
2021/08/18 08:21:42;;;;;;;0.20;0.20;;;18.90;99.90;;;;;;5076279;28;20048;-89
2021/08/18 08:24:09;;;;;;;0.43;0.20;;;19.30;99.90;;;;;;5076137;28;20052;-91
2021/08/18 08:26:35;;;;;;;0.20;0.20;;;19.90;99.90;;;;;;5076391;28;20403;-91
2021/08/18 08:29:02;;;;;;;0.15;0.15;;;19.80;99.90;;;;;;5076302;28;20043;-89
2021/08/18 08:31:29;;;;;;;0.15;0.15;;;20.10;99.90;;;;;;5076363;28;20134;-89
2021/08/18 08:33:56;;;;;;;0.10;0.10;;;20.10;99.90;;;;;;5076116;28;20067;-87
2021/08/18 08:36:22;;;;;;;0.15;0.15;;;20.20;99.90;;;;;;5076182;28;20056;-89
2021/08/18 08:38:49;;;;;;;0.20;0.20;;;19.90;99.90;;;;;;5075876;28;20054;-89
2021/08/18 08:41:16;;;;;;;0.10;0.10;;;19.30;99.90;;;;;;5075679;28;20495;-89
2021/08/18 08:43:42;;;;;;;0.75;0.20;;;19.20;99.90;;;;;;5076179;28;20044;-90
2021/08/18 08:46:09;;;;;;;0.40;0.20;;;19.20;99.90;;;;;;5076073;28;20050;-89
2021/08/18 08:48:39;;;;;;;0.10;0.10;;;19.30;99.90;;;;;;5076218;28;20051;-90
2021/08/18 08:51:06;;;;;;;0.52;0.20;;;19.80;99.90;;;;;;5077129;28;20052;-90
2021/08/18 08:53:34;;;;;;;0.20;0.20;;;20.20;99.90;;;;;;5076588;28;20054;-90
2021/08/18 08:56:03;;;;;;;1.55;0.15;;;20.60;99.90;;;;;;5075566;28;20071;-88
2021/08/18 08:58:29;;;;;;;2.40;0.40;;;20.50;99.90;;;;;;5075813;28;20524;-89
2021/08/18 09:00:56;;;;;;;0.50;0.20;;;20.30;99.90;;;;;;5076997;28;20155;-89
2021/08/18 09:03:26;;;;;;;0.40;0.15;;;19.90;99.90;;;;;;5079755;28;20048;-87
2021/08/18 09:06:02;;;;;;;0.47;0.40;;;19.40;99.90;;;;;;5080183;28;20115;-91
2021/08/18 09:08:29;;;;;;;0.20;0.20;;;19.00;99.90;;;;;;5079381;28;20446;-88
2021/08/18 09:11:13;;;;;;;0.32;0.32;;;19.20;99.90;;;;;;5079717;28;20138;-90
2021/08/18 09:13:54;;;;;;;0.30;0.20;;;19.70;99.90;;;;;;5079240;28;20482;-89
2021/08/18 09:16:30;;;;;;;0.98;0.40;;;19.80;99.90;;;;;;5079310;28;20044;-88
2021/08/18 09:18:57;;;;;;;0.20;0.20;;;19.90;99.90;;;;;;5079944;28;20044;-89
2021/08/18 09:21:29;;;;;;;2.20;0.30;;;20.10;99.90;;;;;;5079381;28;20048;-90
2021/08/18 09:24:11;;;;;;;1.10;0.22;;;21.00;99.90;;;;;;5079203;28;20484;-90
2021/08/18 09:26:40;;;;;;;1.75;0.22;;;22.70;99.90;;;;;;5079430;28;20456;-90
2021/08/18 09:29:06;;;;;;;0.10;0.10;;;23.70;99.90;;;;;;5079110;28;20070;-89
2021/08/18 09:31:33;;;;;;;0.20;0.20;;;23.60;99.90;;;;;;5079272;28;20416;-89
2021/08/18 09:34:00;;;;;;;1.25;0.20;;;23.70;99.90;;;;;;5079045;28;20431;-88
2021/08/18 09:36:29;;;;;;;0.17;0.17;;;23.20;99.90;;;;;;5079025;28;20054;-89
2021/08/18 09:39:20;;;;;;;0.30;0.30;;;22.80;99.90;;;;;;5078777;28;20510;-88
2021/08/18 09:41:47;;;;;;;1.40;0.40;;;22.20;99.90;;;;;;5078885;28;20048;-88
2021/08/18 09:44:14;;;;;;;0.30;0.30;;;21.90;99.90;;;;;;5078862;28;20500;-89
2021/08/18 09:46:41;;;;;;;2.00;0.40;;;21.60;99.90;;;;;;5078959;28;20066;-88
2021/08/18 09:49:10;;;;;;;0.32;0.32;;;21.40;99.90;;;;;;5078857;28;20070;-89
2021/08/18 09:51:38;;;;;;;0.52;0.25;;;21.90;99.90;;;;;;5078745;28;20135;-89
2021/08/18 09:54:12;;;;;;;0.73;0.50;;;22.30;99.90;;;;;;5077694;28;20044;-89
2021/08/18 09:56:43;;;;;;;0.60;0.60;;;22.90;99.90;;;;;;5077929;28;20048;-89
2021/08/18 09:59:11;;;;;;;0.60;0.32;;;23.60;99.90;;;;;;5078193;28;20044;-90
2021/08/18 10:01:39;;;;;;;0.50;0.50;;;23.60;99.90;;;;;;5078726;28;20052;-90
2021/08/18 10:04:06;;;;;;;0.40;0.40;;;23.30;99.90;;;;;;5078659;28;20447;-91
2021/08/18 10:06:33;;;;;;;0.80;0.50;;;23.50;99.90;;;;;;5095989;28;20052;-89
2021/08/18 10:09:01;;;;;;;1.73;0.50;;;23.40;99.90;;;;;;5079498;28;20060;-91
2021/08/18 10:11:28;;;;;;;0.35;0.35;;;23.00;99.90;;;;;;5097671;28;20047;-90
2021/08/18 10:13:55;;;;;;;0.40;0.40;;;22.40;99.90;;;;;;5081130;28;20090;-90
2021/08/18 10:16:22;;;;;;;0.40;0.40;;;21.80;99.90;;;;;;5095328;28;20043;-89
2021/08/18 10:18:52;;;;;;;1.05;0.57;;;21.30;99.90;;;;;;5075932;28;20059;-89
2021/08/18 10:21:26;;;;;;;0.22;0.22;;;20.70;99.90;;;;;;5095362;28;20458;-88
2021/08/18 10:23:57;;;;;;;0.50;0.50;;;20.40;99.90;;;;;;5077868;28;20127;-91
2021/08/18 10:26:33;;;;;;;0.50;0.50;;;19.90;99.90;;;;;;5077630;28;20142;-88
2021/08/18 10:29:09;;;;;;;2.38;0.50;;;19.50;99.90;;;;;;5077628;28;20052;-89
2021/08/18 10:31:42;;;;;;;1.88;0.63;;;19.50;99.90;;;;;;5077871;28;20044;-88
2021/08/18 10:34:34;;;;;;;1.38;0.63;;;19.70;99.90;;;;;;5077879;28;20106;-90
2021/08/18 10:37:06;;;;;;;0.40;0.40;;;19.90;99.90;;;;;;5077349;28;20060;-89
2021/08/18 10:39:51;;;;;;;0.30;0.30;;;20.10;99.90;;;;;;5077383;28;20488;-91
2021/08/18 10:42:21;;;;;;;0.98;0.52;;;20.50;99.90;;;;;;5095405;28;20079;-90
2021/08/18 10:44:49;;;;;;;0.45;0.45;;;20.90;99.90;;;;;;5077405;28;20415;-90
2021/08/18 10:47:33;;;;;;;1.10;0.50;;;21.30;99.90;;;;;;5075893;28;20073;-89
2021/08/18 10:50:24;;;;;;;0.75;0.50;;;21.90;99.90;;;;;;5093540;28;20048;-89
2021/08/18 10:52:55;;;;;;;0.52;0.32;;;22.40;99.90;;;;;;5093429;28;20097;-90
2021/08/18 10:55:23;;;;;;;0.55;0.55;;;22.60;99.90;;;;;;5075773;28;20063;-87
2021/08/18 10:57:57;;;;;;;0.60;0.60;;;22.50;99.90;;;;;;5075895;28;20048;-92
2021/08/18 11:00:42;;;;;;;0.70;0.70;;;22.20;99.90;;;;;;5076253;28;20062;-87
2021/08/18 11:03:12;;;;;;;0.40;0.40;;;21.70;99.90;;;;;;5077159;28;20052;-87
2021/08/18 11:05:40;;;;;;;1.00;0.60;;;21.60;99.90;;;;;;5076525;28;20109;-88
2021/08/18 11:08:12;;;;;;;0.50;0.50;;;21.30;99.90;;;;;;5076801;28;20048;-87
2021/08/18 11:10:41;;;;;;;0.50;0.50;;;21.50;99.90;;;;;;5076492;28;20052;-89
2021/08/18 11:13:18;;;;;;;0.70;0.70;;;21.70;99.90;;;;;;5076791;28;20052;-89
2021/08/18 11:15:50;;;;;;;2.95;0.60;;;22.00;99.90;;;;;;5094994;28;20131;-88
2021/08/18 11:18:18;;;;;;;2.67;0.73;;;21.80;99.90;;;;;;5077059;28;20040;-88
2021/08/18 11:20:51;;;;;;;1.13;0.70;;;21.40;99.90;;;;;;5076376;28;20059;-89
2021/08/18 11:23:26;;;;;;;1.73;0.60;;;21.50;99.90;;;;;;5094292;28;20078;-89
2021/08/18 11:25:57;;;;;;;0.50;0.50;;;21.50;99.90;;;;;;5075980;28;20110;-88
2021/08/18 11:28:26;;;;;;;0.75;0.70;;;21.50;99.90;;;;;;5076531;28;20048;-90
2021/08/18 11:30:58;;;;;;;0.50;0.50;;;21.30;99.90;;;;;;5093581;28;20058;-90
2021/08/18 11:33:26;;;;;;;0.60;0.60;;;21.30;99.90;;;;;;5075032;28;20043;-90
2021/08/18 11:35:53;;;;;;;1.38;0.60;;;21.10;99.90;;;;;;5092925;28;20063;-92
2021/08/18 11:38:21;;;;;;;1.30;0.35;;;21.10;99.90;;;;;;5092637;28;20505;-89
2021/08/18 11:40:50;;;;;;;3.55;0.60;;;21.30;99.90;;;;;;5077212;28;20047;-90
2021/08/18 11:43:17;;;;;;;0.38;0.38;;;21.30;99.90;;;;;;5094780;28;20044;-91
2021/08/18 11:45:51;;;;;;;0.40;0.40;;;21.60;99.90;;;;;;5076755;28;20496;-92
2021/08/18 11:48:22;;;;;;;0.50;0.40;;;21.80;99.90;;;;;;5077087;28;20048;-92
2021/08/18 11:50:54;;;;;;;3.45;0.40;;;21.90;99.90;;;;;;5076938;28;20052;-91
2021/08/18 11:53:21;;;;;;;2.15;0.52;;;21.80;99.90;;;;;;5095215;28;20048;-91
2021/08/18 11:55:57;;;;;;;1.88;0.40;;;21.70;99.90;;;;;;5076730;28;20062;-91
2021/08/18 11:58:31;;;;;;;1.27;0.60;;;21.70;99.90;;;;;;5076392;28;20039;-90
2021/08/18 12:01:01;;;;;;;;;;;21.70;99.90;;;;;;5077420;28;20052;-92
2021/08/18 12:03:29;;;;;;;1.17;0.40;;;21.80;99.90;;;;;;5110646;28;19920;-90
2021/08/18 12:06:05;;;;;;;2.00;0.38;;;21.90;99.90;;;;;;5076757;28;20131;-93
2021/08/18 12:08:34;;;;;;;1.15;0.40;;;21.90;99.90;;;;;;5076758;28;20051;-91
2021/08/18 12:11:02;;;;;;;0.40;0.40;;;21.60;99.90;;;;;;5076824;28;20048;-91
2021/08/18 12:13:38;;;;;;;1.27;0.57;;;21.30;99.90;;;;;;5076893;28;20084;-89
2021/08/18 12:16:22;;;;;;;0.50;0.50;;;21.40;99.90;;;;;;5076418;28;20044;-89
2021/08/18 12:18:51;;;;;;;0.35;0.35;;;21.50;99.90;;;;;;5076853;28;20138;-92
2021/08/18 12:21:18;;;;;;;3.90;0.60;;;21.50;99.90;;;;;;5076760;28;20480;-91
2021/08/18 12:23:46;;;;;;;0.60;0.60;;;21.30;99.90;;;;;;5076738;28;20499;-89
2021/08/18 12:26:34;;;;;;;8.00;1.08;;;21.30;99.90;;;;;;5076580;28;20076;-89
2021/08/18 12:29:06;;;;;;;4.75;0.60;;;21.30;99.90;;;;;;5076570;28;20052;-90
2021/08/18 12:31:56;;;;;;;2.47;0.50;;;21.60;99.90;;;;;;5076331;28;20489;-89
2021/08/18 12:34:42;;;;;;;0.73;0.60;;;22.10;99.90;;;;;;5076784;28;20044;-88
2021/08/18 12:37:17;;;;;;;0.40;0.40;;;22.50;99.90;;;;;;5080564;28;20056;-90
2021/08/18 12:39:56;;;;;;;0.85;0.40;;;22.70;99.90;;;;;;5082474;28;20419;-88
2021/08/18 12:42:25;;;;;;;2.17;0.70;;;22.70;99.90;;;;;;5082425;28;20088;-93
2021/08/18 12:45:15;;;;;;;0.65;0.65;;;22.50;99.90;;;;;;5080832;28;20054;-89
2021/08/18 12:47:51;;;;;;;0.80;0.80;;;22.60;99.90;;;;;;5081499;28;20058;-89
2021/08/18 12:50:28;;;;;;;0.63;0.63;;;22.30;99.90;;;;;;5080717;28;20046;-88
2021/08/18 12:52:56;;;;;;;1.95;0.70;;;21.90;99.90;;;;;;5080025;28;20067;-88